ANZ164 YBCS-NZAA
Flight info
| Callsign | ANZ164 |
|---|---|
| Flight time | N/A |
| Altitude | 33000 |
| Route | AKROM Z17 OVRON A346 IGLET DCT UPLAR |
| Aircraft | A320/M-SDE3FGHIRWY/LB1 |
Departure
| Time | 2026-05-05 22:46 |
|---|---|
| Airport | Cairns International Airport (YBCS) |
Arrival
| Time | N/A |
|---|---|
| Airport | Auckland International Airport (NZAA) |
| Time | Latitude | Longitude | Altitude | Speed | Heading |
|---|---|---|---|---|---|
| 2026-05-05 22:27 | -16.87240 | 145.75471 | 16 ft | 0 kts | 157° |
| 2026-05-05 22:34 | -16.87238 | 145.75469 | 16 ft | 3 kts | 157° |
| 2026-05-05 22:34 | -16.87213 | 145.75459 | 16 ft | 4 kts | 160° |
| 2026-05-05 22:34 | -16.87187 | 145.75451 | 19 ft | 4 kts | 168° |
| 2026-05-05 22:35 | -16.87161 | 145.75448 | 18 ft | 4 kts | 197° |
| 2026-05-05 22:35 | -16.87148 | 145.75456 | 17 ft | 0 kts | 246° |
| 2026-05-05 22:38 | -16.87149 | 145.75454 | 16 ft | 1 kts | 246° |
| 2026-05-05 22:38 | -16.87153 | 145.75444 | 18 ft | 2 kts | 246° |
| 2026-05-05 22:38 | -16.87160 | 145.75427 | 16 ft | 3 kts | 246° |
| 2026-05-05 22:39 | -16.87169 | 145.75403 | 17 ft | 4 kts | 248° |
| 2026-05-05 22:39 | -16.87181 | 145.75372 | 18 ft | 5 kts | 248° |
| 2026-05-05 22:39 | -16.87196 | 145.75336 | 16 ft | 6 kts | 244° |
| 2026-05-05 22:39 | -16.87211 | 145.75295 | 16 ft | 7 kts | 249° |
| 2026-05-05 22:40 | -16.87231 | 145.75247 | 16 ft | 8 kts | 246° |
| 2026-05-05 22:40 | -16.87253 | 145.75193 | 16 ft | 8 kts | 247° |
| 2026-05-05 22:40 | -16.87277 | 145.75133 | 18 ft | 9 kts | 247° |
| 2026-05-05 22:40 | -16.87303 | 145.75067 | 16 ft | 10 kts | 247° |
| 2026-05-05 22:41 | -16.87324 | 145.74992 | 16 ft | 11 kts | 269° |
| 2026-05-05 22:41 | -16.87299 | 145.74911 | 18 ft | 12 kts | 294° |
| 2026-05-05 22:41 | -16.87238 | 145.74851 | 16 ft | 13 kts | 335° |
| 2026-05-05 22:41 | -16.87156 | 145.74812 | 16 ft | 13 kts | 336° |
| 2026-05-05 22:42 | -16.87091 | 145.74783 | 16 ft | 10 kts | 336° |
| 2026-05-05 22:42 | -16.87048 | 145.74734 | 16 ft | 10 kts | 274° |
| 2026-05-05 22:42 | -16.87072 | 145.74658 | 15 ft | 12 kts | 243° |
| 2026-05-05 22:42 | -16.87065 | 145.74574 | 15 ft | 13 kts | 321° |
| 2026-05-05 22:43 | -16.86981 | 145.74534 | 16 ft | 13 kts | 334° |
| 2026-05-05 22:43 | -16.86895 | 145.74492 | 15 ft | 14 kts | 335° |
| 2026-05-05 22:43 | -16.86805 | 145.74451 | 15 ft | 14 kts | 336° |
| 2026-05-05 22:43 | -16.86712 | 145.74409 | 16 ft | 14 kts | 336° |
| 2026-05-05 22:44 | -16.86635 | 145.74355 | 19 ft | 12 kts | 315° |
| 2026-05-05 22:44 | -16.86573 | 145.74346 | 17 ft | 9 kts | 65° |
| 2026-05-05 22:44 | -16.86619 | 145.74374 | 17 ft | 9 kts | 171° |
| 2026-05-05 22:44 | -16.86693 | 145.74406 | 19 ft | 19 kts | 157° |
| 2026-05-05 22:45 | -16.87011 | 145.74551 | 14 ft | 82 kts | 157° |
| 2026-05-05 22:45 | -16.87708 | 145.74866 | 18 ft | 134 kts | 156° |
| 2026-05-05 22:45 | -16.88676 | 145.75294 | 227 ft | 156 kts | 158° |
| 2026-05-05 22:45 | -16.89682 | 145.75829 | 466 ft | 180 kts | 137° |
| 2026-05-05 22:46 | -16.90351 | 145.77112 | 386 ft | 232 kts | 99° |
| 2026-05-05 22:46 | -16.89993 | 145.78816 | 997 ft | 249 kts | 59° |
| 2026-05-05 22:46 | -16.88808 | 145.80090 | 2153 ft | 237 kts | 41° |
| 2026-05-05 22:46 | -16.87541 | 145.81059 | 3398 ft | 214 kts | 38° |
| 2026-05-05 22:47 | -16.86351 | 145.81897 | 4189 ft | 206 kts | 39° |
| 2026-05-05 22:47 | -16.85213 | 145.82794 | 4696 ft | 205 kts | 53° |
| 2026-05-05 22:47 | -16.84468 | 145.84078 | 4986 ft | 212 kts | 77° |
| 2026-05-05 22:47 | -16.84343 | 145.85579 | 5545 ft | 205 kts | 102° |
| 2026-05-05 22:48 | -16.84851 | 145.86929 | 6183 ft | 201 kts | 126° |
| 2026-05-05 22:48 | -16.85913 | 145.87931 | 6519 ft | 216 kts | 150° |
| 2026-05-05 22:48 | -16.87393 | 145.88377 | 6901 ft | 228 kts | 174° |
| 2026-05-05 22:48 | -16.88920 | 145.88581 | 7628 ft | 214 kts | 162° |
| 2026-05-05 22:49 | -16.90299 | 145.89098 | 8137 ft | 213 kts | 153° |
| 2026-05-05 22:49 | -16.91709 | 145.89770 | 8286 ft | 232 kts | 154° |
| 2026-05-05 22:49 | -16.93190 | 145.90442 | 8847 ft | 228 kts | 155° |
| 2026-05-05 22:49 | -16.94660 | 145.91072 | 9341 ft | 231 kts | 158° |
| 2026-05-05 22:50 | -16.96202 | 145.91675 | 9627 ft | 241 kts | 160° |
| 2026-05-05 22:50 | -16.97804 | 145.92244 | 10051 ft | 242 kts | 161° |
| 2026-05-05 22:50 | -16.99374 | 145.92861 | 10504 ft | 243 kts | 158° |
| 2026-05-05 22:50 | -17.00982 | 145.93637 | 10529 ft | 265 kts | 149° |
| 2026-05-05 22:51 | -17.02504 | 145.94787 | 10644 ft | 284 kts | 140° |
| 2026-05-05 22:51 | -17.04065 | 145.96197 | 10771 ft | 303 kts | 139° |
| 2026-05-05 22:51 | -17.05683 | 145.97667 | 10889 ft | 321 kts | 139° |
| 2026-05-05 22:51 | -17.07431 | 145.99220 | 11014 ft | 338 kts | 142° |
| 2026-05-05 22:52 | -17.09402 | 146.00670 | 11136 ft | 354 kts | 148° |
| 2026-05-05 22:52 | -17.11541 | 146.02025 | 11435 ft | 363 kts | 150° |
| 2026-05-05 22:52 | -17.13753 | 146.03333 | 11873 ft | 367 kts | 152° |